Time;durP1;ratioP1;P1;durP2;ratioP2;P2;SDS_P1;SDS_P2;PMS_P1;PMS_P2;Temp;Humidity;BMP_temperature;BMP_pressure;BME280_temperature;BME280_humidity;BME280_pressure;Samples;Min_cycle;Max_cycle;Signal;HPM_P1;HPM_P2
2022/07/18 00:02:06;;;;;;;0.63;0.63;;;;;17.40;99094.00;;;;5114588;28;20202;-70
2022/07/18 00:04:33;;;;;;;0.97;0.97;;;;;17.40;99088.00;;;;5096617;28;20535;-70
2022/07/18 00:07:00;;;;;;;0.60;0.60;;;;;17.40;99091.00;;;;5114529;28;20202;-70
2022/07/18 00:09:27;;;;;;;0.90;0.90;;;;;17.40;99088.00;;;;5114313;28;20190;-70
2022/07/18 00:11:54;;;;;;;1.47;1.37;;;;;17.30;99080.00;;;;5114394;28;20221;-70
2022/07/18 00:14:22;;;;;;;0.50;0.50;;;;;17.30;99088.00;;;;5114576;28;20206;-70
2022/07/18 00:16:50;;;;;;;0.70;0.70;;;;;17.40;99091.00;;;;5114342;28;20201;-71
2022/07/18 00:19:17;;;;;;;0.80;0.80;;;;;17.40;99096.00;;;;5114334;28;20512;-70
2022/07/18 00:21:45;;;;;;;0.60;0.60;;;;;17.40;99094.00;;;;5114137;28;20277;-70
2022/07/18 00:24:11;;;;;;;1.33;1.10;;;;;17.30;99094.00;;;;5114240;28;20512;-70
2022/07/18 00:26:38;;;;;;;0.93;0.93;;;;;17.50;99094.00;;;;5114146;28;20226;-71
2022/07/18 00:29:05;;;;;;;0.70;0.70;;;;;17.40;99082.00;;;;5114224;28;20194;-72
2022/07/18 00:31:36;;;;;;;0.60;0.60;;;;;17.20;99087.00;;;;5114086;28;20230;-70
2022/07/18 00:34:05;;;;;;;0.93;0.93;;;;;17.00;99097.00;;;;5114114;28;20202;-71
2022/07/18 00:36:32;;;;;;;0.50;0.50;;;;;16.90;99082.00;;;;5114086;28;20189;-70
2022/07/18 00:39:00;;;;;;;0.90;0.90;;;;;16.80;99082.00;;;;5113966;28;20204;-70
2022/07/18 00:41:27;;;;;;;1.47;1.37;;;;;16.80;99084.00;;;;5113989;28;20633;-70
2022/07/18 00:43:54;;;;;;;1.10;0.87;;;;;16.60;99093.00;;;;5114144;28;20328;-70
2022/07/18 00:46:25;;;;;;;0.60;0.60;;;;;16.50;99081.00;;;;5113991;28;20198;-71
2022/07/18 00:48:52;;;;;;;0.83;0.83;;;;;16.60;99085.00;;;;5114157;28;20226;-70
2022/07/18 00:51:21;;;;;;;0.67;0.67;;;;;16.50;99076.00;;;;5113853;28;20214;-70
2022/07/18 00:53:49;;;;;;;0.60;0.60;;;;;16.40;99072.00;;;;5113840;28;20205;-70
2022/07/18 00:56:19;;;;;;;0.70;0.70;;;;;16.50;99080.00;;;;5113807;28;20193;-70
2022/07/18 00:58:46;;;;;;;3.87;2.53;;;;;16.70;99078.00;;;;5113854;28;20221;-70
2022/07/18 01:03:58;;;;;;;0.50;0.50;;;;;16.60;99077.00;;;;5117393;28;20186;-70
2022/07/18 01:06:26;;;;;;;0.80;0.80;;;;;16.60;99072.00;;;;5117184;28;20231;-70
2022/07/18 01:08:53;;;;;;;0.60;0.60;;;;;16.60;99079.00;;;;5117322;28;20186;-70
2022/07/18 01:11:22;;;;;;;0.67;0.67;;;;;16.60;99078.00;;;;5117060;28;20237;-70
2022/07/18 01:13:51;;;;;;;0.67;0.67;;;;;16.40;99074.00;;;;5117164;28;20197;-70
2022/07/18 01:16:18;;;;;;;4.33;1.03;;;;;16.50;99075.00;;;;5117343;28;20201;-70
2022/07/18 01:18:46;;;;;;;1.03;1.03;;;;;16.50;99073.00;;;;5117271;28;20206;-70
2022/07/18 01:21:14;;;;;;;0.60;0.60;;;;;16.50;99075.00;;;;5117104;28;20190;-70
2022/07/18 01:23:41;;;;;;;1.70;0.93;;;;;16.60;99068.00;;;;5117022;28;20202;-70
2022/07/18 01:26:09;;;;;;;0.60;0.60;;;;;16.40;99069.00;;;;5116981;28;20190;-70
2022/07/18 01:28:36;;;;;;;0.70;0.70;;;;;16.30;99079.00;;;;5116800;28;20221;-70
2022/07/18 01:31:03;;;;;;;0.60;0.60;;;;;16.40;99066.00;;;;5116809;28;20232;-70
2022/07/18 01:33:32;;;;;;;0.60;0.60;;;;;16.40;99068.00;;;;5116773;28;20300;-70
2022/07/18 01:35:59;;;;;;;0.60;0.60;;;;;16.40;99077.00;;;;5116854;28;20730;-70
2022/07/18 01:38:27;;;;;;;1.07;1.07;;;;;16.10;99074.00;;;;5117147;28;20616;-70
2022/07/18 01:40:55;;;;;;;0.60;0.60;;;;;16.10;99075.00;;;;5098922;28;20272;-70
2022/07/18 01:43:22;;;;;;;0.60;0.60;;;;;16.00;99063.00;;;;5116773;28;20259;-69
2022/07/18 01:45:49;;;;;;;0.50;0.50;;;;;16.10;99071.00;;;;5116754;28;20224;-69
2022/07/18 01:48:16;;;;;;;0.60;0.60;;;;;16.10;99069.00;;;;5116818;28;20331;-69
2022/07/18 01:50:43;;;;;;;0.63;0.63;;;;;15.90;99074.00;;;;5116479;28;20256;-69
2022/07/18 01:53:09;;;;;;;0.53;0.53;;;;;15.80;99075.00;;;;5116600;28;20190;-70
2022/07/18 01:55:37;;;;;;;0.50;0.50;;;;;15.80;99073.00;;;;5116468;28;20262;-70
2022/07/18 01:58:07;;;;;;;0.80;0.80;;;;;15.80;99067.00;;;;5116578;28;20201;-70
2022/07/18 02:00:33;;;;;;;0.60;0.60;;;;;15.70;99077.00;;;;5116538;28;20205;-70
2022/07/18 02:03:00;;;;;;;0.53;0.53;;;;;15.90;99074.00;;;;5116496;28;20483;-70
2022/07/18 02:05:27;;;;;;;0.50;0.50;;;;;15.80;99076.00;;;;5116438;28;20190;-70
2022/07/18 02:07:54;;;;;;;0.60;0.60;;;;;15.90;99078.00;;;;5116469;28;20232;-71
2022/07/18 02:10:22;;;;;;;1.90;1.80;;;;;15.90;99074.00;;;;5115685;28;20636;-70
2022/07/18 02:12:50;;;;;;;0.50;0.50;;;;;15.80;99067.00;;;;5116192;28;20290;-70
2022/07/18 02:15:19;;;;;;;1.10;1.10;;;;;15.70;99073.00;;;;5116279;28;20210;-72
2022/07/18 02:17:46;;;;;;;0.60;0.60;;;;;15.70;99074.00;;;;5098436;28;20576;-70
2022/07/18 02:20:14;;;;;;;1.10;1.10;;;;;15.70;99068.00;;;;5116239;28;20202;-70
2022/07/18 02:22:41;;;;;;;0.50;0.50;;;;;15.80;99066.00;;;;5116129;28;20193;-71
2022/07/18 02:25:11;;;;;;;0.50;0.50;;;;;15.70;99079.00;;;;5116181;28;20232;-72
2022/07/18 02:27:38;;;;;;;0.60;0.60;;;;;15.60;99073.00;;;;5116166;28;20186;-71
2022/07/18 02:30:09;;;;;;;0.60;0.60;;;;;15.60;99074.00;;;;5115867;28;20247;-70
2022/07/18 02:32:37;;;;;;;0.63;0.63;;;;;15.50;99076.00;;;;5116038;28;20255;-70
2022/07/18 02:35:05;;;;;;;0.47;0.47;;;;;15.50;99070.00;;;;5116044;28;20221;-71
2022/07/18 02:37:34;;;;;;;0.40;0.40;;;;;15.50;99075.00;;;;5116005;28;20198;-72
2022/07/18 02:40:01;;;;;;;1.40;1.20;;;;;15.70;99071.00;;;;5115747;28;20266;-72
2022/07/18 02:42:28;;;;;;;0.60;0.60;;;;;15.70;99067.00;;;;5116006;28;20224;-72
2022/07/18 02:44:55;;;;;;;0.47;0.47;;;;;15.60;99072.00;;;;5115990;28;20230;-71
2022/07/18 02:47:22;;;;;;;1.17;1.17;;;;;15.50;99071.00;;;;5115695;28;20201;-70
2022/07/18 02:49:49;;;;;;;0.80;0.80;;;;;15.30;99070.00;;;;5115708;28;20205;-70
2022/07/18 02:52:16;;;;;;;0.70;0.70;;;;;15.20;99069.00;;;;5115505;28;20282;-70
2022/07/18 02:54:43;;;;;;;0.50;0.50;;;;;15.10;99066.00;;;;5115685;28;20201;-72
2022/07/18 02:57:10;;;;;;;0.57;0.57;;;;;15.10;99069.00;;;;5115758;28;20270;-70
2022/07/18 02:59:37;;;;;;;0.40;0.40;;;;;15.10;99066.00;;;;5115769;28;20217;-70
2022/07/18 03:02:04;;;;;;;0.70;0.70;;;;;15.00;99073.00;;;;5115531;28;20198;-70
2022/07/18 03:04:31;;;;;;;0.57;0.57;;;;;15.00;99073.00;;;;5115422;28;20649;-70
2022/07/18 03:06:58;;;;;;;0.67;0.67;;;;;15.00;99070.00;;;;5115502;28;20190;-70
2022/07/18 03:09:27;;;;;;;4.77;1.70;;;;;15.00;99073.00;;;;5115316;28;20230;-70
2022/07/18 03:11:56;;;;;;;0.53;0.53;;;;;14.90;99072.00;;;;5115362;28;20217;-70
2022/07/18 03:14:23;;;;;;;0.60;0.60;;;;;15.00;99075.00;;;;5115233;28;20217;-70
2022/07/18 03:16:50;;;;;;;0.87;0.87;;;;;14.90;99075.00;;;;5115256;28;20198;-70
2022/07/18 03:19:17;;;;;;;0.60;0.60;;;;;15.00;99079.00;;;;5115149;28;20230;-70
2022/07/18 03:21:44;;;;;;;0.70;0.70;;;;;14.90;99080.00;;;;5114479;28;20262;-70
2022/07/18 03:24:13;;;;;;;0.97;0.97;;;;;14.90;99083.00;;;;5115020;28;20194;-70
2022/07/18 03:26:41;;;;;;;0.77;0.77;;;;;14.90;99082.00;;;;5115120;28;20288;-70
2022/07/18 03:29:07;;;;;;;0.70;0.70;;;;;15.10;99071.00;;;;5115131;28;20272;-70
2022/07/18 03:31:34;;;;;;;0.50;0.50;;;;;15.10;99075.00;;;;5114974;28;20548;-70
2022/07/18 03:34:01;;;;;;;0.70;0.70;;;;;15.00;99070.00;;;;5115076;28;20194;-70
2022/07/18 03:36:31;;;;;;;0.60;0.60;;;;;14.90;99069.00;;;;5114866;28;20247;-70
2022/07/18 03:38:59;;;;;;;1.70;0.73;;;;;15.10;99074.00;;;;5114998;28;20198;-70
2022/07/18 03:41:26;;;;;;;1.80;1.27;;;;;15.00;99083.00;;;;5114858;28;20197;-70
2022/07/18 03:43:52;;;;;;;0.60;0.60;;;;;15.10;99072.00;;;;5114798;28;20210;-70
2022/07/18 03:46:19;;;;;;;0.83;0.83;;;;;15.00;99076.00;;;;5114838;28;20218;-71
2022/07/18 03:48:46;;;;;;;0.90;0.90;;;;;14.90;99077.00;;;;5114989;28;20204;-71
2022/07/18 03:51:13;;;;;;;1.37;1.37;;;;;15.00;99080.00;;;;5114660;28;20318;-71
2022/07/18 03:53:40;;;;;;;0.63;0.63;;;;;15.00;99078.00;;;;5114760;28;20233;-71
2022/07/18 03:56:08;;;;;;;0.97;0.97;;;;;15.10;99075.00;;;;5114593;28;20287;-71
2022/07/18 03:58:35;;;;;;;0.50;0.50;;;;;15.00;99075.00;;;;5114623;28;20198;-71
2022/07/18 04:01:02;;;;;;;0.70;0.70;;;;;14.90;99069.00;;;;5114556;28;20317;-71
2022/07/18 04:03:31;;;;;;;0.93;0.93;;;;;14.80;99065.00;;;;5114603;28;20301;-71
2022/07/18 04:06:00;;;;;;;1.33;1.23;;;;;14.90;99069.00;;;;5114431;28;20214;-71
2022/07/18 04:08:27;;;;;;;0.60;0.60;;;;;14.90;99066.00;;;;5114459;28;20205;-71
2022/07/18 04:10:54;;;;;;;0.90;0.90;;;;;14.80;99069.00;;;;5114401;28;20747;-71
2022/07/18 04:13:24;;;;;;;1.67;1.57;;;;;14.80;99069.00;;;;5096505;28;20214;-71
2022/07/18 04:15:50;;;;;;;0.60;0.60;;;;;14.80;99072.00;;;;5114346;28;20286;-71
2022/07/18 04:18:19;;;;;;;0.97;0.97;;;;;14.90;99068.00;;;;5114497;28;20277;-71
2022/07/18 04:20:46;;;;;;;0.70;0.70;;;;;14.90;99075.00;;;;5114253;28;20236;-71
2022/07/18 04:23:13;;;;;;;1.00;1.00;;;;;15.00;99072.00;;;;5114472;28;20621;-71
2022/07/18 04:25:42;;;;;;;0.83;0.83;;;;;15.10;99069.00;;;;5114162;28;20251;-70
2022/07/18 04:28:10;;;;;;;0.97;0.97;;;;;15.10;99067.00;;;;5114177;28;20645;-71
2022/07/18 04:30:39;;;;;;;0.87;0.87;;;;;15.10;99064.00;;;;5114081;28;20272;-71
2022/07/18 04:33:08;;;;;;;0.60;0.60;;;;;15.00;99063.00;;;;5113825;28;20202;-71
2022/07/18 04:35:36;;;;;;;0.70;0.70;;;;;15.00;99071.00;;;;5114312;28;20205;-71
2022/07/18 04:38:03;;;;;;;0.53;0.53;;;;;15.00;99065.00;;;;5114119;28;20220;-70
2022/07/18 04:40:30;;;;;;;0.60;0.60;;;;;15.10;99061.00;;;;5114139;28;20194;-70
2022/07/18 04:42:57;;;;;;;1.50;1.00;;;;;15.10;99064.00;;;;5114120;28;20208;-71
2022/07/18 04:45:24;;;;;;;1.57;1.47;;;;;15.40;99060.00;;;;5114101;28;20240;-71
2022/07/18 04:47:52;;;;;;;1.20;1.10;;;;;15.30;99062.00;;;;5113996;28;20212;-71
2022/07/18 04:50:19;;;;;;;0.70;0.70;;;;;15.40;99063.00;;;;5114032;28;20222;-71
2022/07/18 04:52:47;;;;;;;0.90;0.90;;;;;15.30;99077.00;;;;5113939;28;20190;-70
2022/07/18 04:55:17;;;;;;;1.37;1.23;;;;;15.40;99062.00;;;;5113925;28;20194;-70
2022/07/18 04:57:44;;;;;;;0.73;0.73;;;;;15.60;99063.00;;;;5113830;28;20201;-70
2022/07/18 05:00:15;;;;;;;0.60;0.60;;;;;15.60;99063.00;;;;5113758;28;20194;-71
2022/07/18 05:02:42;;;;;;;0.60;0.60;;;;;15.50;99063.00;;;;5095733;28;20561;-70
2022/07/18 05:05:11;;;;;;;0.90;0.90;;;;;15.50;99058.00;;;;5113617;28;20210;-70
2022/07/18 05:07:39;;;;;;;0.60;0.60;;;;;15.60;99060.00;;;;5113637;28;20194;-70
2022/07/18 05:10:07;;;;;;;0.97;0.93;;;;;15.70;99062.00;;;;5095602;28;20231;-71
2022/07/18 05:12:34;;;;;;;0.90;0.90;;;;;15.70;99065.00;;;;5113570;28;20222;-71
2022/07/18 05:15:01;;;;;;;1.27;1.27;;;;;15.90;99068.00;;;;5113583;28;20196;-70
2022/07/18 05:17:28;;;;;;;0.70;0.70;;;;;15.90;99056.00;;;;5113397;28;20218;-72
2022/07/18 05:19:57;;;;;;;0.80;0.80;;;;;16.00;99067.00;;;;5113535;28;20198;-72
2022/07/18 05:22:27;;;;;;;0.60;0.60;;;;;16.10;99065.00;;;;5113509;28;20226;-71
2022/07/18 05:24:54;;;;;;;0.90;0.90;;;;;16.10;99072.00;;;;5113645;28;20194;-71
2022/07/18 05:27:23;;;;;;;0.67;0.67;;;;;16.20;99069.00;;;;5113390;28;20222;-71
2022/07/18 05:29:50;;;;;;;0.50;0.50;;;;;16.30;99065.00;;;;5113476;28;20213;-70
2022/07/18 05:32:17;;;;;;;0.80;0.80;;;;;16.40;99064.00;;;;5113264;28;20329;-70
2022/07/18 05:34:44;;;;;;;0.50;0.50;;;;;16.50;99061.00;;;;5113397;28;20577;-70
2022/07/18 05:37:11;;;;;;;1.00;1.00;;;;;16.50;99061.00;;;;5113325;28;20680;-70
2022/07/18 05:39:38;;;;;;;0.93;0.93;;;;;16.60;99059.00;;;;5113469;28;20210;-70
2022/07/18 05:42:06;;;;;;;0.50;0.50;;;;;16.80;99056.00;;;;5113547;28;20234;-70
2022/07/18 05:44:33;;;;;;;0.77;0.77;;;;;16.80;99058.00;;;;5113294;28;20218;-70
2022/07/18 05:47:00;;;;;;;0.50;0.50;;;;;17.00;99061.00;;;;5116330;28;20661;-70
2022/07/18 05:49:26;;;;;;;0.93;0.93;;;;;17.10;99060.00;;;;5099085;28;20202;-71
2022/07/18 05:51:53;;;;;;;0.60;0.60;;;;;17.10;99068.00;;;;5116481;28;20222;-71
2022/07/18 05:54:20;;;;;;;1.27;1.27;;;;;17.20;99071.00;;;;5116836;28;20497;-71
2022/07/18 05:56:49;;;;;;;0.60;0.60;;;;;17.40;99066.00;;;;5098672;28;20808;-71
2022/07/18 05:59:15;;;;;;;0.80;0.80;;;;;17.60;99072.00;;;;5116544;28;20206;-71
2022/07/18 06:01:45;;;;;;;0.80;0.80;;;;;17.70;99068.00;;;;5116597;28;20226;-71
2022/07/18 06:04:14;;;;;;;0.53;0.53;;;;;17.80;99070.00;;;;5116577;28;20198;-71
2022/07/18 06:06:41;;;;;;;0.50;0.50;;;;;17.90;99069.00;;;;5116650;28;20232;-72
2022/07/18 06:09:08;;;;;;;1.60;1.20;;;;;18.00;99068.00;;;;5116403;28;20198;-68
2022/07/18 06:11:36;;;;;;;0.73;0.73;;;;;18.10;99067.00;;;;5116312;28;20218;-69
2022/07/18 06:14:03;;;;;;;0.53;0.53;;;;;18.20;99064.00;;;;5116285;28;20675;-72
2022/07/18 06:16:31;;;;;;;0.77;0.77;;;;;18.30;99071.00;;;;5116240;28;20273;-71
2022/07/18 06:18:58;;;;;;;0.80;0.80;;;;;18.40;99062.00;;;;5116144;28;20273;-72
2022/07/18 06:21:25;;;;;;;0.80;0.80;;;;;18.50;99065.00;;;;5116213;28;20190;-72
2022/07/18 06:23:54;;;;;;;1.00;0.90;;;;;18.60;99061.00;;;;5116029;28;20677;-71
2022/07/18 06:26:21;;;;;;;0.80;0.80;;;;;18.70;99063.00;;;;5116042;28;20186;-71
2022/07/18 06:28:48;;;;;;;1.40;1.30;;;;;18.80;99068.00;;;;5098221;28;20589;-71
2022/07/18 06:31:16;;;;;;;0.60;0.60;;;;;19.00;99059.00;;;;5115989;28;20217;-71
2022/07/18 06:33:46;;;;;;;1.20;1.20;;;;;19.10;99063.00;;;;5098011;28;20593;-71
2022/07/18 06:36:13;;;;;;;0.57;0.57;;;;;19.20;99065.00;;;;5115978;28;20186;-71
2022/07/18 06:38:40;;;;;;;6.20;1.20;;;;;19.30;99060.00;;;;5115723;28;20618;-71
2022/07/18 06:41:08;;;;;;;8.33;1.90;;;;;19.40;99056.00;;;;5115870;28;20248;-71
2022/07/18 06:43:36;;;;;;;2.00;1.17;;;;;19.50;99063.00;;;;5115572;28;20194;-72
2022/07/18 06:46:03;;;;;;;0.60;0.60;;;;;19.70;99058.00;;;;5115573;28;20221;-72
2022/07/18 06:48:33;;;;;;;0.80;0.80;;;;;20.00;99055.00;;;;5115781;28;20285;-72
2022/07/18 06:51:01;;;;;;;1.90;1.10;;;;;20.00;99055.00;;;;5115606;28;20665;-71
2022/07/18 06:53:29;;;;;;;0.60;0.60;;;;;20.10;99057.00;;;;5115680;28;20190;-70
2022/07/18 06:55:56;;;;;;;0.67;0.67;;;;;20.20;99048.00;;;;5115487;28;20250;-73
2022/07/18 06:58:23;;;;;;;1.23;1.23;;;;;20.30;99049.00;;;;5115492;28;20255;-70
2022/07/18 07:00:51;;;;;;;0.87;0.87;;;;;20.40;99053.00;;;;5115502;28;20258;-70
2022/07/18 07:03:17;;;;;;;0.87;0.87;;;;;20.60;99047.00;;;;5115403;28;20229;-71
2022/07/18 07:05:46;;;;;;;0.53;0.53;;;;;20.60;99054.00;;;;5115631;28;20641;-72
2022/07/18 07:08:13;;;;;;;2.23;1.37;;;;;20.80;99049.00;;;;5115358;28;20190;-72
2022/07/18 07:10:42;;;;;;;0.60;0.60;;;;;20.90;99043.00;;;;5115281;28;20698;-71
2022/07/18 07:13:09;;;;;;;0.50;0.50;;;;;20.90;99043.00;;;;5115517;28;20194;-70
2022/07/18 07:15:36;;;;;;;0.80;0.80;;;;;21.10;99044.00;;;;5115176;28;20222;-71
2022/07/18 07:18:03;;;;;;;0.80;0.80;;;;;21.30;99044.00;;;;5115475;28;20190;-71
2022/07/18 07:20:30;;;;;;;0.63;0.63;;;;;21.50;99047.00;;;;5115255;28;20305;-71
2022/07/18 07:22:58;;;;;;;1.40;1.30;;;;;21.50;99038.00;;;;5115518;28;20197;-71
2022/07/18 07:25:26;;;;;;;1.75;1.50;;;;;21.60;99038.00;;;;5115094;28;20229;-71
2022/07/18 07:27:53;;;;;;;1.48;1.38;;;;;21.70;99037.00;;;;5115212;28;20640;-71
2022/07/18 07:30:20;;;;;;;0.70;0.70;;;;;21.80;99038.00;;;;5115145;28;20186;-74
2022/07/18 07:32:48;;;;;;;0.70;0.70;;;;;21.90;99039.00;;;;5115008;28;20305;-75
2022/07/18 07:35:16;;;;;;;0.47;0.47;;;;;22.00;99041.00;;;;5115069;28;20271;-74
2022/07/18 07:37:45;;;;;;;2.17;1.15;;;;;22.10;99044.00;;;;5096953;28;20229;-74
2022/07/18 07:40:15;;;;;;;0.60;0.60;;;;;22.20;99049.00;;;;5115365;28;20205;-77
2022/07/18 07:42:45;;;;;;;0.80;0.80;;;;;22.30;99044.00;;;;5114944;28;20249;-74
2022/07/18 07:45:13;;;;;;;0.65;0.65;;;;;22.40;99048.00;;;;5114892;28;20194;-74
2022/07/18 07:47:40;;;;;;;0.50;0.50;;;;;22.50;99040.00;;;;5114863;28;20193;-74
2022/07/18 07:50:09;;;;;;;0.60;0.60;;;;;22.60;99039.00;;;;5114887;28;20517;-72
2022/07/18 07:52:36;;;;;;;2.58;0.80;;;;;22.70;99035.00;;;;5114753;28;20221;-71
2022/07/18 07:55:04;;;;;;;0.70;0.70;;;;;22.80;99037.00;;;;5114657;28;20232;-72
2022/07/18 07:57:35;;;;;;;0.43;0.43;;;;;22.90;99034.00;;;;5114673;28;20206;-71
2022/07/18 08:00:07;;;;;;;0.50;0.50;;;;;23.00;99032.00;;;;5114594;28;20228;-73
2022/07/18 08:02:34;;;;;;;0.75;0.75;;;;;23.10;99039.00;;;;5114536;28;20190;-73
2022/07/18 08:05:01;;;;;;;0.73;0.73;;;;;23.20;99032.00;;;;5114544;28;20198;-73
2022/07/18 08:07:28;;;;;;;0.70;0.70;;;;;23.40;99033.00;;;;5114434;28;20208;-71
2022/07/18 08:09:55;;;;;;;0.68;0.68;;;;;23.50;99032.00;;;;5113996;28;20269;-72
2022/07/18 08:12:24;;;;;;;1.13;1.13;;;;;23.70;99034.00;;;;5114214;28;20245;-72
2022/07/18 08:14:51;;;;;;;0.73;0.73;;;;;23.80;99030.00;;;;5114525;28;20238;-72
2022/07/18 08:17:18;;;;;;;0.80;0.80;;;;;24.00;99032.00;;;;5114349;28;20222;-71
2022/07/18 08:19:45;;;;;;;1.05;0.95;;;;;24.10;99029.00;;;;5114300;28;20205;-69
2022/07/18 08:22:12;;;;;;;0.70;0.70;;;;;24.10;99026.00;;;;5114234;28;20194;-72
2022/07/18 08:24:39;;;;;;;0.73;0.73;;;;;24.20;99029.00;;;;5114198;28;20575;-73
2022/07/18 08:27:06;;;;;;;1.08;1.05;;;;;24.30;99029.00;;;;5114240;28;20186;-72
2022/07/18 08:29:33;;;;;;;0.80;0.80;;;;;24.50;99028.00;;;;5096344;28;20640;-72
2022/07/18 08:32:00;;;;;;;0.73;0.73;;;;;24.60;99026.00;;;;5096289;28;20309;-71
2022/07/18 08:34:27;;;;;;;0.73;0.73;;;;;24.70;99026.00;;;;5113975;28;20560;-73
2022/07/18 08:36:54;;;;;;;0.65;0.65;;;;;24.80;99028.00;;;;5114081;28;20625;-74
2022/07/18 08:39:21;;;;;;;0.82;0.82;;;;;24.80;99030.00;;;;5114113;28;20843;-73
2022/07/18 08:41:51;;;;;;;0.70;0.70;;;;;24.80;99029.00;;;;5114061;28;20210;-73
2022/07/18 08:44:18;;;;;;;0.70;0.70;;;;;24.90;99026.00;;;;5114095;28;20573;-74
2022/07/18 08:46:51;;;;;;;0.50;0.50;;;;;25.00;99018.00;;;;5114086;28;20738;-71
2022/07/18 08:49:18;;;;;;;0.75;0.75;;;;;25.00;99030.00;;;;5113981;28;20194;-72
2022/07/18 08:51:48;;;;;;;0.63;0.63;;;;;25.10;99035.00;;;;5095946;28;20617;-72
2022/07/18 08:54:15;;;;;;;0.95;0.95;;;;;25.20;99040.00;;;;5113900;28;20273;-73
2022/07/18 08:56:42;;;;;;;0.57;0.57;;;;;25.30;99039.00;;;;5113735;28;20218;-73
2022/07/18 08:59:09;;;;;;;0.85;0.85;;;;;25.40;99042.00;;;;5113967;28;20198;-73
2022/07/18 09:01:36;;;;;;;1.25;1.15;;;;;25.50;99040.00;;;;5113920;28;20190;-71
2022/07/18 09:04:16;;;;;;;0.68;0.68;;;;;25.50;99036.00;;;;5113713;28;20502;-70
2022/07/18 09:06:48;;;;;;;0.85;0.85;;;;;25.60;99033.00;;;;5113801;28;20633;-72
2022/07/18 09:09:16;;;;;;;0.60;0.60;;;;;25.70;99031.00;;;;5113617;28;20304;-71
2022/07/18 09:11:51;;;;;;;1.10;1.10;;;;;25.80;99036.00;;;;5113866;28;20209;-71
2022/07/18 09:14:33;;;;;;;0.60;0.60;;;;;26.10;99040.00;;;;5113610;28;20278;-70
2022/07/18 09:17:05;;;;;;;0.82;0.82;;;;;26.20;99034.00;;;;5113618;28;20530;-70
2022/07/18 09:19:32;;;;;;;0.70;0.70;;;;;26.10;99035.00;;;;5113657;28;20214;-70
2022/07/18 09:22:20;;;;;;;0.60;0.60;;;;;26.10;99044.00;;;;5116642;28;20254;-70
2022/07/18 09:24:53;;;;;;;0.93;0.93;;;;;26.20;99040.00;;;;5117077;28;20246;-72
2022/07/18 09:27:28;;;;;;;0.60;0.60;;;;;26.40;99041.00;;;;5117065;28;20258;-71
2022/07/18 09:30:24;;;;;;;0.60;0.60;;;;;26.60;99038.00;;;;5099145;28;20189;-72
2022/07/18 09:32:53;;;;;;;0.88;0.88;;;;;26.80;99041.00;;;;5095301;28;20226;-70
2022/07/18 09:35:23;;;;;;;2.17;1.02;;;;;26.90;99040.00;;;;5117015;28;20641;-69
2022/07/18 09:37:59;;;;;;;0.50;0.50;;;;;26.90;99038.00;;;;5116836;28;20194;-70
2022/07/18 09:40:28;;;;;;;0.70;0.70;;;;;27.00;99029.00;;;;5116872;28;20189;-70
2022/07/18 09:42:57;;;;;;;0.70;0.70;;;;;27.10;99032.00;;;;5098885;28;20222;-71
2022/07/18 09:45:26;;;;;;;2.20;0.82;;;;;27.20;99033.00;;;;5116798;28;20281;-71
2022/07/18 09:47:55;;;;;;;1.08;0.85;;;;;27.30;99023.00;;;;5116630;28;20221;-72
2022/07/18 09:50:25;;;;;;;0.80;0.80;;;;;27.40;99024.00;;;;5116743;28;20220;-72
2022/07/18 09:53:15;;;;;;;0.68;0.68;;;;;27.70;99021.00;;;;5116461;28;20214;-70
2022/07/18 09:55:45;;;;;;;0.70;0.70;;;;;27.70;99017.00;;;;5116676;28;20652;-70
2022/07/18 09:58:14;;;;;;;1.10;0.98;;;;;27.80;99021.00;;;;5116709;28;20190;-70
2022/07/18 10:00:40;;;;;;;0.60;0.60;;;;;27.90;99020.00;;;;5116657;28;20269;-72
2022/07/18 10:03:08;;;;;;;0.60;0.60;;;;;28.00;99016.00;;;;5116564;28;20236;-70
2022/07/18 10:05:36;;;;;;;0.88;0.88;;;;;28.30;99014.00;;;;5116466;28;20217;-71
2022/07/18 10:08:06;;;;;;;0.60;0.60;;;;;28.50;99017.00;;;;5116427;28;20258;-70
2022/07/18 10:10:33;;;;;;;1.00;1.00;;;;;28.50;99019.00;;;;5116294;28;20222;-73
2022/07/18 10:13:02;;;;;;;0.68;0.68;;;;;28.40;99017.00;;;;5116251;28;20218;-70
2022/07/18 10:15:31;;;;;;;3.95;1.17;;;;;28.60;99019.00;;;;5116286;28;20194;-71
2022/07/18 10:17:59;;;;;;;1.42;1.33;;;;;28.80;99019.00;;;;5116146;28;20197;-71
2022/07/18 10:20:28;;;;;;;0.80;0.80;;;;;29.00;99013.00;;;;5116152;28;20856;-69
2022/07/18 10:22:59;;;;;;;0.90;0.90;;;;;29.10;99017.00;;;;5098258;28;20313;-71
2022/07/18 10:25:27;;;;;;;0.70;0.70;;;;;29.10;99014.00;;;;5116212;28;20193;-71
2022/07/18 10:28:06;;;;;;;0.60;0.60;;;;;29.10;99016.00;;;;5115950;28;20237;-71
2022/07/18 10:30:35;;;;;;;0.70;0.70;;;;;29.20;99022.00;;;;5116166;28;20717;-71
2022/07/18 10:33:20;;;;;;;0.80;0.80;;;;;29.40;99018.00;;;;5115842;28;20233;-71
2022/07/18 10:36:02;;;;;;;0.60;0.60;;;;;29.50;99016.00;;;;5115179;28;20201;-70
2022/07/18 10:38:29;;;;;;;0.60;0.60;;;;;29.60;99012.00;;;;5115955;28;20205;-70
2022/07/18 10:41:11;;;;;;;0.70;0.70;;;;;29.80;99013.00;;;;5115942;28;20194;-71
2022/07/18 10:43:45;;;;;;;0.60;0.60;;;;;29.80;99003.00;;;;5116231;28;20510;-70
2022/07/18 10:46:13;;;;;;;0.60;0.60;;;;;29.90;99007.00;;;;5115881;28;20223;-70
2022/07/18 10:48:57;;;;;;;0.73;0.73;;;;;30.20;99013.00;;;;5115739;28;20197;-71
2022/07/18 10:51:31;;;;;;;0.90;0.90;;;;;30.30;99013.00;;;;5115576;28;20210;-70
2022/07/18 10:54:11;;;;;;;0.80;0.80;;;;;30.40;99007.00;;;;5115742;28;20185;-71
2022/07/18 10:57:10;;;;;;;0.60;0.60;;;;;30.50;99002.00;;;;5115592;28;20701;-71
2022/07/18 10:59:59;;;;;;;0.75;0.75;;;;;30.50;99004.00;;;;5115564;28;20189;-71
2022/07/18 11:02:33;;;;;;;0.60;0.60;;;;;30.60;98998.00;;;;5115516;28;20236;-72
2022/07/18 11:05:00;;;;;;;0.60;0.60;;;;;30.70;99000.00;;;;5115492;28;20205;-70
2022/07/18 11:07:26;;;;;;;1.10;1.10;;;;;30.90;98997.00;;;;5115420;28;20217;-69
2022/07/18 11:09:56;;;;;;;0.60;0.60;;;;;31.10;98993.00;;;;5115353;28;20201;-70
2022/07/18 11:12:25;;;;;;;0.70;0.70;;;;;31.20;98993.00;;;;5097247;28;20564;-71
2022/07/18 11:15:03;;;;;;;0.70;0.70;;;;;31.30;98986.00;;;;5115385;28;20635;-72
2022/07/18 11:18:10;;;;;;;1.23;1.23;;;;;31.60;98987.00;;;;5115439;28;20194;-69
2022/07/18 11:20:40;;;;;;;0.60;0.60;;;;;31.70;98983.00;;;;5115414;28;20620;-72
2022/07/18 11:23:15;;;;;;;0.65;0.65;;;;;31.70;98983.00;;;;5115237;28;20190;-71
2022/07/18 11:25:42;;;;;;;0.60;0.60;;;;;32.00;98981.00;;;;5115150;28;20213;-74
2022/07/18 11:28:13;;;;;;;0.80;0.80;;;;;32.00;98974.00;;;;5097238;28;20585;-71
2022/07/18 11:30:41;;;;;;;0.95;0.95;;;;;32.00;98976.00;;;;5097273;28;20540;-71
2022/07/18 11:33:22;;;;;;;0.70;0.70;;;;;32.00;98973.00;;;;5115048;28;20226;-71
2022/07/18 11:35:50;;;;;;;1.10;1.00;;;;;32.20;98972.00;;;;5115041;28;20229;-70
2022/07/18 11:38:17;;;;;;;0.80;0.80;;;;;32.20;98968.00;;;;5114978;28;20217;-71
2022/07/18 11:40:51;;;;;;;0.65;0.65;;;;;32.40;98970.00;;;;5114813;28;20190;-72
2022/07/18 11:43:23;;;;;;;0.73;0.73;;;;;32.30;98968.00;;;;5114001;28;20227;-71
2022/07/18 11:46:04;;;;;;;0.70;0.70;;;;;32.50;98968.00;;;;5114753;28;20217;-70
2022/07/18 11:48:31;;;;;;;1.00;1.00;;;;;32.50;98966.00;;;;5114877;28;20267;-73
2022/07/18 11:51:01;;;;;;;0.93;0.93;;;;;32.80;98961.00;;;;5114910;28;20197;-71
2022/07/18 11:53:28;;;;;;;0.70;0.70;;;;;32.90;98962.00;;;;5114771;28;20301;-71
2022/07/18 11:56:03;;;;;;;0.80;0.80;;;;;33.20;98956.00;;;;5114669;28;20285;-71
2022/07/18 11:58:37;;;;;;;0.95;0.95;;;;;33.50;98955.00;;;;5114808;28;20296;-70
2022/07/18 12:01:05;;;;;;;1.02;1.02;;;;;33.60;98953.00;;;;5097016;28;20495;-71
2022/07/18 12:03:34;;;;;;;0.80;0.80;;;;;33.60;98958.00;;;;5114919;28;20257;-71
2022/07/18 12:06:11;;;;;;;0.73;0.73;;;;;33.60;98944.00;;;;5114761;28;20284;-70
2022/07/18 12:08:42;;;;;;;0.60;0.60;;;;;33.70;98946.00;;;;5114708;28;20234;-71
2022/07/18 12:11:12;;;;;;;0.60;0.60;;;;;33.90;98942.00;;;;5114687;28;20273;-71
2022/07/18 12:13:54;;;;;;;0.70;0.70;;;;;34.10;98936.00;;;;5114674;28;20234;-71
2022/07/18 12:16:26;;;;;;;1.08;0.98;;;;;34.40;98938.00;;;;5114514;28;20221;-69
2022/07/18 12:18:56;;;;;;;0.60;0.60;;;;;34.40;98936.00;;;;5114372;28;20193;-71
2022/07/18 12:21:23;;;;;;;0.98;0.98;;;;;34.60;98933.00;;;;5114545;28;20301;-70
2022/07/18 12:23:52;;;;;;;0.70;0.70;;;;;34.80;98939.00;;;;5114354;28;20217;-71
2022/07/18 12:26:29;;;;;;;0.60;0.60;;;;;34.90;98928.00;;;;5114313;28;20268;-71
2022/07/18 12:29:06;;;;;;;1.13;1.08;;;;;34.90;98924.00;;;;5114331;28;20270;-72
2022/07/18 12:31:42;;;;;;;0.60;0.60;;;;;35.10;98929.00;;;;5114104;28;20357;-71